KRWF/RWF METAR and TAF weather

Enter ICAO airport designator
Station Type Date Time Source
KRWF METAR 2019/10/23 13:53 UTC NOAA

KRWF 231353Z AUTO 32004KT 10SM CLR 00/M02 A2986 RMK AO2 SLP122 T00001022


Station Type Date Time Source
KRWF Decoded METAR 2019/10/23 13:53 UTC NOAA

REDWOOD FALLS MUNICIPAL, MN, United States (KRWF) 44-33N 95-05W 311M
Oct 23, 2019 - 09:53 AM EDT / 2019.10.23 1353 UTC
Wind: from the NW (320 degrees) at 5 MPH (4 KT):0
Visibility: 10 mile(s):0
Sky conditions: clear
Temperature: 32.0 F (0.0 C)
Windchill: 26 F (-3 C):1
Dew Point: 28.0 F (-2.2 C)
Relative Humidity: 85%
Pressure (altimeter): 29.86 in. Hg (1011 hPa)
ob: KRWF 231353Z AUTO 32004KT 10SM CLR 00/M02 A2986 RMK AO2 SLP122 T00001022
cycle: 14

Station Type Date Time Source
KRWF TAF 2019/10/23 12:33 UTC NOAA

TAF KRWF 231131Z 2312/2412 30004KT P6SM BKN080
FM231900 35008KT P6SM OVC045
FM232000 33009KT P6SM OVC026
FM240700 32008KT P6SM BKN060

Example: see airport list